sensor_id;sensor_type;location;lat;lon;timestamp;pressure;altitude;pressure_sealevel;temperature;humidity
62864;BME280;48954;59.950;11.014;2022-07-23T00:02:01;99832.54;;;11.25;76.53
62864;BME280;48954;59.950;11.014;2022-07-23T00:04:27;99834.27;;;11.21;76.54
62864;BME280;48954;59.950;11.014;2022-07-23T00:06:54;99830.87;;;11.17;76.59
62864;BME280;48954;59.950;11.014;2022-07-23T00:09:21;99826.92;;;11.12;76.58
62864;BME280;48954;59.950;11.014;2022-07-23T00:11:47;99824.33;;;11.08;76.55
62864;BME280;48954;59.950;11.014;2022-07-23T00:14:14;99821.03;;;11.05;76.67
62864;BME280;48954;59.950;11.014;2022-07-23T00:16:41;99823.33;;;11.01;76.83
62864;BME280;48954;59.950;11.014;2022-07-23T00:19:08;99822.77;;;10.98;76.89
62864;BME280;48954;59.950;11.014;2022-07-23T00:21:35;99823.04;;;10.96;76.90
62864;BME280;48954;59.950;11.014;2022-07-23T00:24:01;99821.39;;;10.93;76.79
62864;BME280;48954;59.950;11.014;2022-07-23T00:26:28;99818.64;;;10.88;76.89
62864;BME280;48954;59.950;11.014;2022-07-23T00:28:55;99816.66;;;10.85;76.93
62864;BME280;48954;59.950;11.014;2022-07-23T00:31:22;99815.77;;;10.81;77.06
62864;BME280;48954;59.950;11.014;2022-07-23T00:33:48;99817.25;;;10.76;77.02
62864;BME280;48954;59.950;11.014;2022-07-23T00:36:16;99815.07;;;10.72;77.18
62864;BME280;48954;59.950;11.014;2022-07-23T00:38:42;99816.89;;;10.70;77.41
62864;BME280;48954;59.950;11.014;2022-07-23T00:41:09;99817.80;;;10.69;77.49
62864;BME280;48954;59.950;11.014;2022-07-23T00:43:35;99815.80;;;10.67;77.37
62864;BME280;48954;59.950;11.014;2022-07-23T00:46:02;99814.27;;;10.66;77.49
62864;BME280;48954;59.950;11.014;2022-07-23T00:48:29;99814.79;;;10.64;77.57
62864;BME280;48954;59.950;11.014;2022-07-23T00:50:56;99812.10;;;10.63;77.50
62864;BME280;48954;59.950;11.014;2022-07-23T00:53:23;99808.67;;;10.61;77.43
62864;BME280;48954;59.950;11.014;2022-07-23T00:55:50;99808.44;;;10.58;77.58
62864;BME280;48954;59.950;11.014;2022-07-23T00:58:16;99808.91;;;10.55;77.64
62864;BME280;48954;59.950;11.014;2022-07-23T01:00:43;99809.57;;;10.53;77.47
62864;BME280;48954;59.950;11.014;2022-07-23T01:03:10;99807.71;;;10.50;77.48
62864;BME280;48954;59.950;11.014;2022-07-23T01:05:36;99805.21;;;10.48;77.69
62864;BME280;48954;59.950;11.014;2022-07-23T01:08:05;99801.39;;;10.45;77.71
62864;BME280;48954;59.950;11.014;2022-07-23T01:10:32;99797.89;;;10.41;77.59
62864;BME280;48954;59.950;11.014;2022-07-23T01:13:02;99800.98;;;10.39;77.73
62864;BME280;48954;59.950;11.014;2022-07-23T01:15:30;99802.89;;;10.36;77.68
62864;BME280;48954;59.950;11.014;2022-07-23T01:17:58;99799.39;;;10.31;77.81
62864;BME280;48954;59.950;11.014;2022-07-23T01:20:24;99802.86;;;10.25;77.81
62864;BME280;48954;59.950;11.014;2022-07-23T01:22:52;99803.73;;;10.26;77.94
62864;BME280;48954;59.950;11.014;2022-07-23T01:25:19;99802.67;;;10.23;78.02
62864;BME280;48954;59.950;11.014;2022-07-23T01:27:46;99799.65;;;10.22;78.00
62864;BME280;48954;59.950;11.014;2022-07-23T01:30:13;99798.04;;;10.20;78.03
62864;BME280;48954;59.950;11.014;2022-07-23T01:32:39;99798.77;;;10.16;77.88
62864;BME280;48954;59.950;11.014;2022-07-23T01:35:06;99798.87;;;10.11;77.68
62864;BME280;48954;59.950;11.014;2022-07-23T01:37:33;99797.55;;;10.05;77.80
62864;BME280;48954;59.950;11.014;2022-07-23T01:39:59;99799.20;;;10.02;78.03
62864;BME280;48954;59.950;11.014;2022-07-23T01:42:26;99797.59;;;10.01;78.22
62864;BME280;48954;59.950;11.014;2022-07-23T01:44:52;99796.46;;;9.99;78.17
62864;BME280;48954;59.950;11.014;2022-07-23T01:47:18;99795.02;;;9.98;78.22
62864;BME280;48954;59.950;11.014;2022-07-23T01:49:45;99791.43;;;9.93;78.18
62864;BME280;48954;59.950;11.014;2022-07-23T01:52:11;99789.67;;;9.92;78.10
62864;BME280;48954;59.950;11.014;2022-07-23T01:54:39;99784.67;;;9.89;78.26
62864;BME280;48954;59.950;11.014;2022-07-23T01:57:06;99780.52;;;9.86;78.16
62864;BME280;48954;59.950;11.014;2022-07-23T01:59:32;99777.02;;;9.82;78.05
62864;BME280;48954;59.950;11.014;2022-07-23T02:01:59;99780.98;;;9.77;78.04
62864;BME280;48954;59.950;11.014;2022-07-23T02:04:25;99780.92;;;9.75;77.97
62864;BME280;48954;59.950;11.014;2022-07-23T02:06:52;99784.09;;;9.73;78.05
62864;BME280;48954;59.950;11.014;2022-07-23T02:09:19;99780.96;;;9.71;78.28
62864;BME280;48954;59.950;11.014;2022-07-23T02:11:45;99783.67;;;9.69;78.41
62864;BME280;48954;59.950;11.014;2022-07-23T02:14:12;99786.67;;;9.67;78.47
62864;BME280;48954;59.950;11.014;2022-07-23T02:16:38;99785.09;;;9.63;78.53
62864;BME280;48954;59.950;11.014;2022-07-23T02:19:05;99782.83;;;9.61;78.58
62864;BME280;48954;59.950;11.014;2022-07-23T02:21:31;99778.91;;;9.57;78.60
62864;BME280;48954;59.950;11.014;2022-07-23T02:23:57;99789.52;;;9.55;78.68
62864;BME280;48954;59.950;11.014;2022-07-23T02:26:24;99785.94;;;9.51;78.59
62864;BME280;48954;59.950;11.014;2022-07-23T02:28:50;99788.53;;;9.48;78.58
62864;BME280;48954;59.950;11.014;2022-07-23T02:31:17;99788.11;;;9.47;78.88
62864;BME280;48954;59.950;11.014;2022-07-23T02:33:43;99786.00;;;9.47;78.89
62864;BME280;48954;59.950;11.014;2022-07-23T02:36:09;99787.85;;;9.46;78.96
62864;BME280;48954;59.950;11.014;2022-07-23T02:38:36;99790.41;;;9.45;78.92
62864;BME280;48954;59.950;11.014;2022-07-23T02:41:02;99789.16;;;9.45;79.00
62864;BME280;48954;59.950;11.014;2022-07-23T02:43:29;99785.24;;;9.45;79.02
62864;BME280;48954;59.950;11.014;2022-07-23T02:45:55;99781.72;;;9.46;79.16
62864;BME280;48954;59.950;11.014;2022-07-23T02:48:21;99782.24;;;9.45;78.94
62864;BME280;48954;59.950;11.014;2022-07-23T02:50:48;99784.48;;;9.43;79.05
62864;BME280;48954;59.950;11.014;2022-07-23T02:53:14;99789.74;;;9.41;79.01
62864;BME280;48954;59.950;11.014;2022-07-23T02:55:40;99789.89;;;9.41;79.27
62864;BME280;48954;59.950;11.014;2022-07-23T02:58:07;99793.52;;;9.39;79.08
62864;BME280;48954;59.950;11.014;2022-07-23T03:00:33;99797.69;;;9.37;79.14
62864;BME280;48954;59.950;11.014;2022-07-23T03:02:59;99802.14;;;9.37;79.22
62864;BME280;48954;59.950;11.014;2022-07-23T03:05:26;99801.34;;;9.35;79.14
62864;BME280;48954;59.950;11.014;2022-07-23T03:07:52;99801.97;;;9.35;79.21
62864;BME280;48954;59.950;11.014;2022-07-23T03:10:19;99804.40;;;9.35;79.33
62864;BME280;48954;59.950;11.014;2022-07-23T03:12:45;99803.64;;;9.36;79.37
62864;BME280;48954;59.950;11.014;2022-07-23T03:15:12;99806.87;;;9.37;79.47
62864;BME280;48954;59.950;11.014;2022-07-23T03:17:38;99810.00;;;9.37;79.43
62864;BME280;48954;59.950;11.014;2022-07-23T03:20:05;99814.08;;;9.37;79.39
62864;BME280;48954;59.950;11.014;2022-07-23T03:22:32;99814.75;;;9.38;79.52
62864;BME280;48954;59.950;11.014;2022-07-23T03:24:58;99812.92;;;9.40;79.53
62864;BME280;48954;59.950;11.014;2022-07-23T03:27:26;99808.17;;;9.41;79.58
62864;BME280;48954;59.950;11.014;2022-07-23T03:29:54;99805.16;;;9.42;79.45
62864;BME280;48954;59.950;11.014;2022-07-23T03:32:21;99810.30;;;9.44;79.44
62864;BME280;48954;59.950;11.014;2022-07-23T03:34:48;99813.27;;;9.46;79.50
62864;BME280;48954;59.950;11.014;2022-07-23T03:37:15;99809.73;;;9.49;79.62
62864;BME280;48954;59.950;11.014;2022-07-23T03:39:42;99820.31;;;9.54;79.70
62864;BME280;48954;59.950;11.014;2022-07-23T03:42:08;99811.33;;;9.58;79.68
62864;BME280;48954;59.950;11.014;2022-07-23T03:44:35;99809.71;;;9.63;79.68
62864;BME280;48954;59.950;11.014;2022-07-23T03:47:01;99810.23;;;9.67;79.61
62864;BME280;48954;59.950;11.014;2022-07-23T03:49:28;99807.46;;;9.72;79.70
62864;BME280;48954;59.950;11.014;2022-07-23T03:51:55;99813.67;;;9.76;79.76
62864;BME280;48954;59.950;11.014;2022-07-23T03:54:22;99809.88;;;9.80;79.60
62864;BME280;48954;59.950;11.014;2022-07-23T03:56:48;99809.52;;;9.84;79.65
62864;BME280;48954;59.950;11.014;2022-07-23T03:59:14;99813.45;;;9.89;79.66
62864;BME280;48954;59.950;11.014;2022-07-23T04:01:41;99812.58;;;9.94;79.73
62864;BME280;48954;59.950;11.014;2022-07-23T04:04:07;99812.09;;;9.99;79.80
62864;BME280;48954;59.950;11.014;2022-07-23T04:06:34;99811.27;;;10.04;79.86
62864;BME280;48954;59.950;11.014;2022-07-23T04:09:01;99809.27;;;10.09;79.94
62864;BME280;48954;59.950;11.014;2022-07-23T04:11:28;99808.78;;;10.15;79.99
62864;BME280;48954;59.950;11.014;2022-07-23T04:13:54;99814.92;;;10.20;80.01
62864;BME280;48954;59.950;11.014;2022-07-23T04:16:20;99811.35;;;10.25;80.06
62864;BME280;48954;59.950;11.014;2022-07-23T04:18:47;99814.46;;;10.31;80.10
62864;BME280;48954;59.950;11.014;2022-07-23T04:21:13;99814.83;;;10.35;80.12
62864;BME280;48954;59.950;11.014;2022-07-23T04:23:40;99815.89;;;10.41;80.13
62864;BME280;48954;59.950;11.014;2022-07-23T04:26:06;99812.23;;;10.46;80.02
62864;BME280;48954;59.950;11.014;2022-07-23T04:28:32;99805.84;;;10.51;80.10
62864;BME280;48954;59.950;11.014;2022-07-23T04:30:59;99801.77;;;10.55;80.01
62864;BME280;48954;59.950;11.014;2022-07-23T04:33:25;99803.68;;;10.60;80.13
62864;BME280;48954;59.950;11.014;2022-07-23T04:35:52;99806.06;;;10.64;79.96
62864;BME280;48954;59.950;11.014;2022-07-23T04:38:18;99799.33;;;10.69;80.02
62864;BME280;48954;59.950;11.014;2022-07-23T04:40:45;99795.80;;;10.76;80.11
62864;BME280;48954;59.950;11.014;2022-07-23T04:43:11;99796.34;;;10.83;80.05
62864;BME280;48954;59.950;11.014;2022-07-23T04:45:37;99798.06;;;10.90;80.01
62864;BME280;48954;59.950;11.014;2022-07-23T04:48:04;99795.02;;;10.98;80.10
62864;BME280;48954;59.950;11.014;2022-07-23T04:50:31;99793.95;;;11.07;80.28
62864;BME280;48954;59.950;11.014;2022-07-23T04:52:57;99793.77;;;11.18;80.26
62864;BME280;48954;59.950;11.014;2022-07-23T04:55:24;99788.33;;;11.28;80.31
62864;BME280;48954;59.950;11.014;2022-07-23T04:57:50;99787.10;;;11.37;80.27
62864;BME280;48954;59.950;11.014;2022-07-23T05:00:17;99784.77;;;11.47;80.32
62864;BME280;48954;59.950;11.014;2022-07-23T05:02:43;99780.44;;;11.60;80.17
62864;BME280;48954;59.950;11.014;2022-07-23T05:05:09;99774.79;;;11.69;80.06
62864;BME280;48954;59.950;11.014;2022-07-23T05:07:36;99778.73;;;11.77;79.90
62864;BME280;48954;59.950;11.014;2022-07-23T05:10:02;99777.67;;;11.88;79.96
62864;BME280;48954;59.950;11.014;2022-07-23T05:12:29;99776.97;;;11.98;79.94
62864;BME280;48954;59.950;11.014;2022-07-23T05:14:55;99774.60;;;12.11;79.90
62864;BME280;48954;59.950;11.014;2022-07-23T05:17:21;99766.33;;;12.26;80.00
62864;BME280;48954;59.950;11.014;2022-07-23T05:19:47;99769.71;;;12.41;79.83
62864;BME280;48954;59.950;11.014;2022-07-23T05:22:14;99772.53;;;12.56;79.61
62864;BME280;48954;59.950;11.014;2022-07-23T05:24:40;99781.01;;;12.70;79.25
62864;BME280;48954;59.950;11.014;2022-07-23T05:27:07;99778.77;;;12.78;78.88
62864;BME280;48954;59.950;11.014;2022-07-23T05:29:33;99780.42;;;12.91;78.64
62864;BME280;48954;59.950;11.014;2022-07-23T05:31:59;99775.19;;;13.01;78.62
62864;BME280;48954;59.950;11.014;2022-07-23T05:34:26;99768.08;;;13.12;78.46
62864;BME280;48954;59.950;11.014;2022-07-23T05:36:52;99765.02;;;13.24;78.40
62864;BME280;48954;59.950;11.014;2022-07-23T05:39:18;99767.80;;;13.32;78.04
62864;BME280;48954;59.950;11.014;2022-07-23T05:41:44;99767.27;;;13.34;77.84
62864;BME280;48954;59.950;11.014;2022-07-23T05:44:11;99770.80;;;13.46;77.73
62864;BME280;48954;59.950;11.014;2022-07-23T05:46:37;99767.89;;;13.55;77.64
62864;BME280;48954;59.950;11.014;2022-07-23T05:49:04;99765.57;;;13.67;77.65
62864;BME280;48954;59.950;11.014;2022-07-23T05:51:30;99763.23;;;13.79;77.50
62864;BME280;48954;59.950;11.014;2022-07-23T05:53:56;99760.58;;;13.91;77.20
62864;BME280;48954;59.950;11.014;2022-07-23T05:56:23;99759.66;;;14.03;77.08
62864;BME280;48954;59.950;11.014;2022-07-23T05:58:49;99762.29;;;14.16;77.07
62864;BME280;48954;59.950;11.014;2022-07-23T06:01:16;99765.45;;;14.26;76.64
62864;BME280;48954;59.950;11.014;2022-07-23T06:03:42;99769.45;;;14.42;76.46
62864;BME280;48954;59.950;11.014;2022-07-23T06:06:08;99770.45;;;14.56;76.33
62864;BME280;48954;59.950;11.014;2022-07-23T06:08:35;99764.27;;;14.69;75.88
62864;BME280;48954;59.950;11.014;2022-07-23T06:11:01;99762.92;;;14.83;75.56
62864;BME280;48954;59.950;11.014;2022-07-23T06:13:28;99758.40;;;14.94;75.09
62864;BME280;48954;59.950;11.014;2022-07-23T06:15:54;99760.19;;;15.05;74.67
62864;BME280;48954;59.950;11.014;2022-07-23T06:18:21;99760.15;;;15.15;74.34
62864;BME280;48954;59.950;11.014;2022-07-23T06:20:47;99760.42;;;15.25;74.13
62864;BME280;48954;59.950;11.014;2022-07-23T06:23:13;99767.91;;;15.36;73.83
62864;BME280;48954;59.950;11.014;2022-07-23T06:25:40;99762.55;;;15.46;73.62
62864;BME280;48954;59.950;11.014;2022-07-23T06:28:06;99760.77;;;15.54;73.19
62864;BME280;48954;59.950;11.014;2022-07-23T06:30:32;99760.47;;;15.62;73.08
62864;BME280;48954;59.950;11.014;2022-07-23T06:32:59;99760.97;;;15.71;72.89
62864;BME280;48954;59.950;11.014;2022-07-23T06:35:25;99761.55;;;15.82;72.48
62864;BME280;48954;59.950;11.014;2022-07-23T06:37:51;99754.02;;;15.90;72.18
62864;BME280;48954;59.950;11.014;2022-07-23T06:40:18;99752.20;;;15.95;71.73
62864;BME280;48954;59.950;11.014;2022-07-23T06:42:44;99751.80;;;16.00;71.46
62864;BME280;48954;59.950;11.014;2022-07-23T06:45:10;99751.66;;;16.10;71.19
62864;BME280;48954;59.950;11.014;2022-07-23T06:47:37;99752.92;;;16.20;70.92
62864;BME280;48954;59.950;11.014;2022-07-23T06:50:03;99755.45;;;16.31;70.63
62864;BME280;48954;59.950;11.014;2022-07-23T06:52:31;99752.02;;;16.38;70.13
62864;BME280;48954;59.950;11.014;2022-07-23T06:54:57;99747.11;;;16.40;69.68
62864;BME280;48954;59.950;11.014;2022-07-23T06:57:24;99748.30;;;16.44;69.56
62864;BME280;48954;59.950;11.014;2022-07-23T06:59:50;99746.88;;;16.48;69.16
62864;BME280;48954;59.950;11.014;2022-07-23T07:02:16;99748.43;;;16.50;68.94
62864;BME280;48954;59.950;11.014;2022-07-23T07:04:43;99748.36;;;16.53;68.72
62864;BME280;48954;59.950;11.014;2022-07-23T07:07:09;99747.89;;;16.55;68.51
62864;BME280;48954;59.950;11.014;2022-07-23T07:09:36;99748.05;;;16.57;68.34
62864;BME280;48954;59.950;11.014;2022-07-23T07:12:02;99744.23;;;16.62;68.08
62864;BME280;48954;59.950;11.014;2022-07-23T07:14:29;99744.95;;;16.66;67.94
62864;BME280;48954;59.950;11.014;2022-07-23T07:16:55;99747.15;;;16.75;67.46
62864;BME280;48954;59.950;11.014;2022-07-23T07:19:22;99746.90;;;16.76;67.03
62864;BME280;48954;59.950;11.014;2022-07-23T07:21:48;99744.83;;;16.79;66.85
62864;BME280;48954;59.950;11.014;2022-07-23T07:24:14;99746.11;;;16.81;66.57
62864;BME280;48954;59.950;11.014;2022-07-23T07:26:41;99750.06;;;16.87;66.54
62864;BME280;48954;59.950;11.014;2022-07-23T07:29:07;99745.78;;;16.86;66.17
62864;BME280;48954;59.950;11.014;2022-07-23T07:31:33;99745.15;;;16.84;66.07
62864;BME280;48954;59.950;11.014;2022-07-23T07:34:00;99749.27;;;16.87;65.79
62864;BME280;48954;59.950;11.014;2022-07-23T07:36:26;99749.95;;;16.92;65.95
62864;BME280;48954;59.950;11.014;2022-07-23T07:38:53;99744.15;;;16.97;65.35
62864;BME280;48954;59.950;11.014;2022-07-23T07:41:19;99747.15;;;16.99;65.47
62864;BME280;48954;59.950;11.014;2022-07-23T07:43:45;99748.88;;;17.04;65.29
62864;BME280;48954;59.950;11.014;2022-07-23T07:46:12;99750.38;;;17.10;65.19
62864;BME280;48954;59.950;11.014;2022-07-23T07:48:38;99747.33;;;17.16;65.22
62864;BME280;48954;59.950;11.014;2022-07-23T07:51:05;99749.91;;;17.22;64.65
62864;BME280;48954;59.950;11.014;2022-07-23T07:53:31;99744.77;;;17.23;64.79
62864;BME280;48954;59.950;11.014;2022-07-23T07:55:58;99739.31;;;17.32;64.63
62864;BME280;48954;59.950;11.014;2022-07-23T07:58:24;99737.73;;;17.42;64.19
62864;BME280;48954;59.950;11.014;2022-07-23T08:00:50;99734.47;;;17.45;64.03
62864;BME280;48954;59.950;11.014;2022-07-23T08:03:17;99736.73;;;17.53;64.03
62864;BME280;48954;59.950;11.014;2022-07-23T08:05:43;99734.44;;;17.67;63.94
62864;BME280;48954;59.950;11.014;2022-07-23T08:08:09;99741.27;;;17.80;63.54
62864;BME280;48954;59.950;11.014;2022-07-23T08:10:36;99738.55;;;17.92;63.27
62864;BME280;48954;59.950;11.014;2022-07-23T08:13:02;99738.45;;;17.95;62.73
62864;BME280;48954;59.950;11.014;2022-07-23T08:15:29;99738.74;;;17.99;62.58
62864;BME280;48954;59.950;11.014;2022-07-23T08:17:57;99742.08;;;18.00;62.55
62864;BME280;48954;59.950;11.014;2022-07-23T08:20:24;99739.45;;;18.01;62.19
62864;BME280;48954;59.950;11.014;2022-07-23T08:22:57;99743.02;;;18.09;62.44
62864;BME280;48954;59.950;11.014;2022-07-23T08:25:28;99738.16;;;18.20;62.25
62864;BME280;48954;59.950;11.014;2022-07-23T08:27:57;99733.98;;;18.26;62.26
62864;BME280;48954;59.950;11.014;2022-07-23T08:30:23;99735.44;;;18.23;61.62
62864;BME280;48954;59.950;11.014;2022-07-23T08:32:58;99735.79;;;18.19;61.40
62864;BME280;48954;59.950;11.014;2022-07-23T08:35:30;99736.10;;;18.11;61.49
62864;BME280;48954;59.950;11.014;2022-07-23T08:37:57;99740.46;;;18.02;60.95
62864;BME280;48954;59.950;11.014;2022-07-23T08:40:26;99739.93;;;17.89;60.90
62864;BME280;48954;59.950;11.014;2022-07-23T08:42:53;99740.41;;;17.89;61.20
62864;BME280;48954;59.950;11.014;2022-07-23T08:45:22;99737.74;;;17.93;61.02
62864;BME280;48954;59.950;11.014;2022-07-23T08:47:50;99737.30;;;18.00;61.28
62864;BME280;48954;59.950;11.014;2022-07-23T08:50:17;99734.66;;;18.11;61.02
62864;BME280;48954;59.950;11.014;2022-07-23T08:52:43;99735.27;;;18.24;60.61
62864;BME280;48954;59.950;11.014;2022-07-23T08:55:10;99736.77;;;18.35;60.28
62864;BME280;48954;59.950;11.014;2022-07-23T08:57:36;99738.61;;;18.50;60.71
62864;BME280;48954;59.950;11.014;2022-07-23T09:00:04;99738.46;;;18.67;60.67
62864;BME280;48954;59.950;11.014;2022-07-23T09:02:31;99740.70;;;18.80;60.47
62864;BME280;48954;59.950;11.014;2022-07-23T09:04:57;99740.35;;;18.97;60.31
62864;BME280;48954;59.950;11.014;2022-07-23T09:07:23;99738.31;;;19.13;59.74
62864;BME280;48954;59.950;11.014;2022-07-23T09:10:05;99733.94;;;19.25;59.49
62864;BME280;48954;59.950;11.014;2022-07-23T09:12:32;99737.23;;;19.30;59.19
62864;BME280;48954;59.950;11.014;2022-07-23T09:15:06;99736.73;;;19.25;58.78
62864;BME280;48954;59.950;11.014;2022-07-23T09:17:39;99735.55;;;19.31;58.76
62864;BME280;48954;59.950;11.014;2022-07-23T09:20:14;99736.23;;;19.33;58.65
62864;BME280;48954;59.950;11.014;2022-07-23T09:22:45;99734.86;;;19.28;58.05
62864;BME280;48954;59.950;11.014;2022-07-23T09:25:16;99733.34;;;19.28;57.78
62864;BME280;48954;59.950;11.014;2022-07-23T09:27:59;99732.63;;;19.28;57.78
62864;BME280;48954;59.950;11.014;2022-07-23T09:30:28;99729.40;;;19.31;57.85
62864;BME280;48954;59.950;11.014;2022-07-23T09:35:51;99723.15;;;19.40;57.36
62864;BME280;48954;59.950;11.014;2022-07-23T09:38:20;99723.37;;;19.54;57.13
62864;BME280;48954;59.950;11.014;2022-07-23T09:41:08;99722.31;;;19.66;56.61
62864;BME280;48954;59.950;11.014;2022-07-23T09:43:34;99717.96;;;19.79;56.37
62864;BME280;48954;59.950;11.014;2022-07-23T09:46:21;99711.41;;;19.82;55.94
62864;BME280;48954;59.950;11.014;2022-07-23T09:48:48;99713.38;;;19.83;56.51
62864;BME280;48954;59.950;11.014;2022-07-23T09:51:14;99713.11;;;19.79;56.29
62864;BME280;48954;59.950;11.014;2022-07-23T09:53:40;99712.34;;;19.67;56.13
62864;BME280;48954;59.950;11.014;2022-07-23T09:56:07;99708.02;;;19.62;56.19
62864;BME280;48954;59.950;11.014;2022-07-23T09:58:36;99708.23;;;19.65;56.07
62864;BME280;48954;59.950;11.014;2022-07-23T10:01:05;99711.41;;;19.66;55.79
62864;BME280;48954;59.950;11.014;2022-07-23T10:03:32;99708.29;;;19.66;55.48
62864;BME280;48954;59.950;11.014;2022-07-23T10:05:58;99710.90;;;19.73;55.85
62864;BME280;48954;59.950;11.014;2022-07-23T10:08:25;99709.25;;;19.75;55.79
62864;BME280;48954;59.950;11.014;2022-07-23T10:10:53;99708.30;;;19.81;55.55
62864;BME280;48954;59.950;11.014;2022-07-23T10:13:20;99707.54;;;19.84;55.26
62864;BME280;48954;59.950;11.014;2022-07-23T10:15:46;99707.98;;;19.91;55.30
62864;BME280;48954;59.950;11.014;2022-07-23T10:18:13;99709.90;;;19.95;54.71
62864;BME280;48954;59.950;11.014;2022-07-23T10:20:40;99714.05;;;20.00;54.54
62864;BME280;48954;59.950;11.014;2022-07-23T10:31:41;99699.77;;;20.09;53.36
62864;BME280;48954;59.950;11.014;2022-07-23T10:37:12;99701.18;;;20.15;54.15
62864;BME280;48954;59.950;11.014;2022-07-23T10:39:40;99693.38;;;20.19;53.76
62864;BME280;48954;59.950;11.014;2022-07-23T10:42:15;99700.27;;;20.26;53.99
62864;BME280;48954;59.950;11.014;2022-07-23T10:44:43;99699.23;;;20.31;53.81
62864;BME280;48954;59.950;11.014;2022-07-23T10:47:11;99696.89;;;20.34;53.85
62864;BME280;48954;59.950;11.014;2022-07-23T10:49:37;99696.84;;;20.31;52.89
62864;BME280;48954;59.950;11.014;2022-07-23T10:54:47;99698.27;;;20.37;53.44
62864;BME280;48954;59.950;11.014;2022-07-23T10:57:15;99699.00;;;20.49;53.53
62864;BME280;48954;59.950;11.014;2022-07-23T11:02:32;99696.30;;;20.69;52.89
62864;BME280;48954;59.950;11.014;2022-07-23T11:05:06;99699.78;;;20.76;52.36
62864;BME280;48954;59.950;11.014;2022-07-23T11:07:35;99694.84;;;20.83;52.52
62864;BME280;48954;59.950;11.014;2022-07-23T11:10:03;99698.35;;;20.91;52.73
62864;BME280;48954;59.950;11.014;2022-07-23T11:17:27;99692.44;;;21.10;52.61
62864;BME280;48954;59.950;11.014;2022-07-23T11:22:36;99687.10;;;21.09;52.55
62864;BME280;48954;59.950;11.014;2022-07-23T11:25:03;99689.44;;;21.04;51.48
62864;BME280;48954;59.950;11.014;2022-07-23T11:27:43;99683.91;;;20.85;50.83
62864;BME280;48954;59.950;11.014;2022-07-23T11:30:38;99682.33;;;20.74;51.96
62864;BME280;48954;59.950;11.014;2022-07-23T11:35:33;99685.54;;;20.88;52.09
62864;BME280;48954;59.950;11.014;2022-07-23T11:38:19;99687.08;;;20.91;51.10
62864;BME280;48954;59.950;11.014;2022-07-23T11:40:49;99685.02;;;20.82;51.62
62864;BME280;48954;59.950;11.014;2022-07-23T11:43:15;99684.14;;;20.82;52.23
62864;BME280;48954;59.950;11.014;2022-07-23T11:45:48;99678.48;;;20.86;52.08
62864;BME280;48954;59.950;11.014;2022-07-23T11:48:22;99677.16;;;20.88;51.83
62864;BME280;48954;59.950;11.014;2022-07-23T11:50:51;99682.60;;;20.91;51.84
62864;BME280;48954;59.950;11.014;2022-07-23T11:53:29;99679.63;;;20.91;51.87
62864;BME280;48954;59.950;11.014;2022-07-23T11:56:05;99680.70;;;20.94;51.99
62864;BME280;48954;59.950;11.014;2022-07-23T11:58:32;99679.40;;;20.95;52.05
62864;BME280;48954;59.950;11.014;2022-07-23T12:00:58;99674.38;;;20.95;51.82
62864;BME280;48954;59.950;11.014;2022-07-23T12:03:25;99672.95;;;20.94;51.59
62864;BME280;48954;59.950;11.014;2022-07-23T12:05:56;99671.92;;;20.91;51.40
62864;BME280;48954;59.950;11.014;2022-07-23T12:08:23;99669.72;;;20.89;51.45
62864;BME280;48954;59.950;11.014;2022-07-23T12:10:49;99667.11;;;20.91;51.26
62864;BME280;48954;59.950;11.014;2022-07-23T12:13:18;99666.38;;;20.99;51.06
62864;BME280;48954;59.950;11.014;2022-07-23T12:15:47;99662.73;;;20.98;50.29
62864;BME280;48954;59.950;11.014;2022-07-23T12:18:20;99662.29;;;20.89;50.69
62864;BME280;48954;59.950;11.014;2022-07-23T12:20:57;99656.16;;;20.91;50.20
62864;BME280;48954;59.950;11.014;2022-07-23T12:23:28;99658.63;;;21.06;50.45
62864;BME280;48954;59.950;11.014;2022-07-23T12:26:01;99656.95;;;21.18;50.81
62864;BME280;48954;59.950;11.014;2022-07-23T12:28:32;99653.09;;;21.19;50.32
62864;BME280;48954;59.950;11.014;2022-07-23T12:30:58;99657.58;;;21.23;50.86
62864;BME280;48954;59.950;11.014;2022-07-23T12:35:55;99655.89;;;21.28;50.66
62864;BME280;48954;59.950;11.014;2022-07-23T12:38:26;99650.60;;;21.24;50.76
62864;BME280;48954;59.950;11.014;2022-07-23T12:40:57;99657.85;;;21.29;50.85
62864;BME280;48954;59.950;11.014;2022-07-23T12:43:28;99658.89;;;21.32;50.72
62864;BME280;48954;59.950;11.014;2022-07-23T12:48:33;99653.42;;;21.37;50.11
62864;BME280;48954;59.950;11.014;2022-07-23T12:51:04;99648.38;;;21.34;50.24
62864;BME280;48954;59.950;11.014;2022-07-23T12:53:36;99648.30;;;21.34;50.36
62864;BME280;48954;59.950;11.014;2022-07-23T12:56:06;99644.77;;;21.28;50.10
62864;BME280;48954;59.950;11.014;2022-07-23T12:58:48;99643.30;;;21.26;50.49
62864;BME280;48954;59.950;11.014;2022-07-23T13:04:06;99639.73;;;21.20;50.72
62864;BME280;48954;59.950;11.014;2022-07-23T13:06:35;99638.55;;;21.19;50.77
62864;BME280;48954;59.950;11.014;2022-07-23T13:09:04;99635.61;;;21.17;50.64
62864;BME280;48954;59.950;11.014;2022-07-23T13:11:30;99637.36;;;21.17;50.67
62864;BME280;48954;59.950;11.014;2022-07-23T13:13:57;99633.13;;;21.19;50.53
62864;BME280;48954;59.950;11.014;2022-07-23T13:16:24;99626.34;;;21.19;50.78
62864;BME280;48954;59.950;11.014;2022-07-23T13:18:50;99627.52;;;21.16;50.89
62864;BME280;48954;59.950;11.014;2022-07-23T13:21:16;99626.02;;;21.15;50.77
62864;BME280;48954;59.950;11.014;2022-07-23T13:23:43;99624.80;;;21.12;50.45
62864;BME280;48954;59.950;11.014;2022-07-23T13:26:10;99624.45;;;21.10;50.71
62864;BME280;48954;59.950;11.014;2022-07-23T13:28:36;99624.05;;;21.10;50.94
62864;BME280;48954;59.950;11.014;2022-07-23T13:31:03;99620.60;;;21.11;51.06
62864;BME280;48954;59.950;11.014;2022-07-23T13:33:29;99618.27;;;21.12;50.90